sensor_id;sensor_type;location;lat;lon;timestamp;temperature;humidity
10344;DHT22;5217;43.960;10.954;2023-02-12T00:00:28;12.20;57.80
10344;DHT22;5217;43.960;10.954;2023-02-12T00:02:56;12.10;57.80
10344;DHT22;5217;43.960;10.954;2023-02-12T00:05:24;12.20;57.90
10344;DHT22;5217;43.960;10.954;2023-02-12T00:07:53;12.20;58.00
10344;DHT22;5217;43.960;10.954;2023-02-12T00:10:22;12.10;57.90
10344;DHT22;5217;43.960;10.954;2023-02-12T00:12:52;12.10;57.90
10344;DHT22;5217;43.960;10.954;2023-02-12T00:15:22;12.10;58.10
10344;DHT22;5217;43.960;10.954;2023-02-12T00:17:51;12.10;58.20
10344;DHT22;5217;43.960;10.954;2023-02-12T00:20:19;12.00;58.10
10344;DHT22;5217;43.960;10.954;2023-02-12T00:22:47;12.00;58.10
10344;DHT22;5217;43.960;10.954;2023-02-12T00:25:16;12.00;58.10
10344;DHT22;5217;43.960;10.954;2023-02-12T00:27:44;12.00;58.10
10344;DHT22;5217;43.960;10.954;2023-02-12T00:30:13;11.90;58.10
10344;DHT22;5217;43.960;10.954;2023-02-12T00:32:44;11.90;58.10
10344;DHT22;5217;43.960;10.954;2023-02-12T00:35:12;11.90;58.30
10344;DHT22;5217;43.960;10.954;2023-02-12T00:37:41;11.90;58.40
10344;DHT22;5217;43.960;10.954;2023-02-12T00:40:10;11.90;58.10
10344;DHT22;5217;43.960;10.954;2023-02-12T00:42:38;11.80;58.20
10344;DHT22;5217;43.960;10.954;2023-02-12T00:45:08;11.80;58.30
10344;DHT22;5217;43.960;10.954;2023-02-12T00:47:36;11.80;58.30
10344;DHT22;5217;43.960;10.954;2023-02-12T00:50:07;11.70;58.40
10344;DHT22;5217;43.960;10.954;2023-02-12T00:52:35;11.70;58.60
10344;DHT22;5217;43.960;10.954;2023-02-12T00:55:05;11.70;58.80
10344;DHT22;5217;43.960;10.954;2023-02-12T00:57:33;11.70;58.90
10344;DHT22;5217;43.960;10.954;2023-02-12T01:00:02;11.70;59.00
10344;DHT22;5217;43.960;10.954;2023-02-12T01:02:31;11.70;59.00
10344;DHT22;5217;43.960;10.954;2023-02-12T01:05:00;11.70;58.90
10344;DHT22;5217;43.960;10.954;2023-02-12T01:07:30;11.70;58.80
10344;DHT22;5217;43.960;10.954;2023-02-12T01:09:58;11.70;58.80
10344;DHT22;5217;43.960;10.954;2023-02-12T01:12:26;11.60;58.70
10344;DHT22;5217;43.960;10.954;2023-02-12T01:14:54;11.60;58.70
10344;DHT22;5217;43.960;10.954;2023-02-12T01:17:23;11.60;58.70
10344;DHT22;5217;43.960;10.954;2023-02-12T01:19:56;11.60;58.70
10344;DHT22;5217;43.960;10.954;2023-02-12T01:22:24;11.50;58.70
10344;DHT22;5217;43.960;10.954;2023-02-12T01:24:54;11.50;58.90
10344;DHT22;5217;43.960;10.954;2023-02-12T01:27:22;11.50;59.00
10344;DHT22;5217;43.960;10.954;2023-02-12T01:29:51;11.50;59.00
10344;DHT22;5217;43.960;10.954;2023-02-12T01:32:19;11.50;59.10
10344;DHT22;5217;43.960;10.954;2023-02-12T01:34:47;11.50;59.10
10344;DHT22;5217;43.960;10.954;2023-02-12T01:37:16;11.40;59.00
10344;DHT22;5217;43.960;10.954;2023-02-12T01:39:44;11.40;59.00
10344;DHT22;5217;43.960;10.954;2023-02-12T01:42:15;11.40;59.00
10344;DHT22;5217;43.960;10.954;2023-02-12T01:45:16;11.40;59.00
10344;DHT22;5217;43.960;10.954;2023-02-12T01:47:33;11.30;58.90
10344;DHT22;5217;43.960;10.954;2023-02-12T01:50:02;11.30;59.00
10344;DHT22;5217;43.960;10.954;2023-02-12T01:52:33;11.30;59.20
10344;DHT22;5217;43.960;10.954;2023-02-12T01:55:06;11.30;59.20
10344;DHT22;5217;43.960;10.954;2023-02-12T01:57:41;11.30;59.40
10344;DHT22;5217;43.960;10.954;2023-02-12T02:00:13;11.30;59.30
10344;DHT22;5217;43.960;10.954;2023-02-12T02:02:45;11.20;59.20
10344;DHT22;5217;43.960;10.954;2023-02-12T02:05:19;11.20;59.30
10344;DHT22;5217;43.960;10.954;2023-02-12T02:07:50;11.20;59.40
10344;DHT22;5217;43.960;10.954;2023-02-12T02:10:19;11.20;59.50
10344;DHT22;5217;43.960;10.954;2023-02-12T02:12:49;11.20;59.40
10344;DHT22;5217;43.960;10.954;2023-02-12T02:15:35;11.20;59.30
10344;DHT22;5217;43.960;10.954;2023-02-12T02:18:07;11.20;59.30
10344;DHT22;5217;43.960;10.954;2023-02-12T02:21:06;11.20;59.40
10344;DHT22;5217;43.960;10.954;2023-02-12T02:24:10;11.20;59.30
10344;DHT22;5217;43.960;10.954;2023-02-12T02:27:04;11.10;59.10
10344;DHT22;5217;43.960;10.954;2023-02-12T02:32:52;11.10;59.30
10344;DHT22;5217;43.960;10.954;2023-02-12T02:35:27;11.00;59.30
10344;DHT22;5217;43.960;10.954;2023-02-12T02:38:06;11.00;60.10
10344;DHT22;5217;43.960;10.954;2023-02-12T02:40:40;11.00;60.30
10344;DHT22;5217;43.960;10.954;2023-02-12T02:43:16;11.00;59.60
10344;DHT22;5217;43.960;10.954;2023-02-12T02:45:47;11.00;59.70
10344;DHT22;5217;43.960;10.954;2023-02-12T02:48:23;11.00;59.80
10344;DHT22;5217;43.960;10.954;2023-02-12T02:50:56;10.90;59.70
10344;DHT22;5217;43.960;10.954;2023-02-12T02:53:30;10.90;59.90
10344;DHT22;5217;43.960;10.954;2023-02-12T02:56:01;10.90;59.90
10344;DHT22;5217;43.960;10.954;2023-02-12T02:58:34;10.80;60.00
10344;DHT22;5217;43.960;10.954;2023-02-12T03:01:06;10.80;60.00
10344;DHT22;5217;43.960;10.954;2023-02-12T03:03:43;10.80;60.30
10344;DHT22;5217;43.960;10.954;2023-02-12T03:06:16;10.70;60.50
10344;DHT22;5217;43.960;10.954;2023-02-12T03:08:49;10.70;60.70
10344;DHT22;5217;43.960;10.954;2023-02-12T03:11:22;10.70;60.80
10344;DHT22;5217;43.960;10.954;2023-02-12T03:13:56;10.70;61.00
10344;DHT22;5217;43.960;10.954;2023-02-12T03:16:27;10.70;61.10
10344;DHT22;5217;43.960;10.954;2023-02-12T03:19:03;10.60;61.00
10344;DHT22;5217;43.960;10.954;2023-02-12T03:21:36;10.60;61.20
10344;DHT22;5217;43.960;10.954;2023-02-12T03:24:11;10.60;61.10
10344;DHT22;5217;43.960;10.954;2023-02-12T03:26:44;10.60;61.30
10344;DHT22;5217;43.960;10.954;2023-02-12T03:29:13;10.60;61.50
10344;DHT22;5217;43.960;10.954;2023-02-12T03:31:57;10.60;61.70
10344;DHT22;5217;43.960;10.954;2023-02-12T03:34:36;10.60;61.70
10344;DHT22;5217;43.960;10.954;2023-02-12T03:37:10;10.50;61.60
10344;DHT22;5217;43.960;10.954;2023-02-12T03:39:47;10.50;61.70
10344;DHT22;5217;43.960;10.954;2023-02-12T03:42:21;10.50;61.60
10344;DHT22;5217;43.960;10.954;2023-02-12T03:44:53;10.40;61.50
10344;DHT22;5217;43.960;10.954;2023-02-12T03:47:26;10.40;61.60
10344;DHT22;5217;43.960;10.954;2023-02-12T03:50:03;10.40;61.70
10344;DHT22;5217;43.960;10.954;2023-02-12T03:52:34;10.40;61.90
10344;DHT22;5217;43.960;10.954;2023-02-12T03:55:03;10.40;62.00
10344;DHT22;5217;43.960;10.954;2023-02-12T03:57:36;10.30;62.30
10344;DHT22;5217;43.960;10.954;2023-02-12T04:00:11;10.30;62.10
10344;DHT22;5217;43.960;10.954;2023-02-12T04:02:41;10.20;62.10
10344;DHT22;5217;43.960;10.954;2023-02-12T04:05:18;10.20;62.10
10344;DHT22;5217;43.960;10.954;2023-02-12T04:07:48;10.20;62.10
10344;DHT22;5217;43.960;10.954;2023-02-12T04:10:18;10.20;62.10
10344;DHT22;5217;43.960;10.954;2023-02-12T04:12:53;10.20;62.10
10344;DHT22;5217;43.960;10.954;2023-02-12T04:15:41;10.20;62.20
10344;DHT22;5217;43.960;10.954;2023-02-12T04:18:18;10.10;62.00
10344;DHT22;5217;43.960;10.954;2023-02-12T04:20:54;10.10;62.00
10344;DHT22;5217;43.960;10.954;2023-02-12T04:23:46;10.10;62.00
10344;DHT22;5217;43.960;10.954;2023-02-12T04:26:23;10.10;62.00
10344;DHT22;5217;43.960;10.954;2023-02-12T04:29:08;10.10;62.00
10344;DHT22;5217;43.960;10.954;2023-02-12T04:31:44;10.10;62.20
10344;DHT22;5217;43.960;10.954;2023-02-12T04:34:17;10.00;62.00
10344;DHT22;5217;43.960;10.954;2023-02-12T04:36:53;10.00;62.20
10344;DHT22;5217;43.960;10.954;2023-02-12T04:39:26;10.00;62.30
10344;DHT22;5217;43.960;10.954;2023-02-12T04:41:58;10.00;62.40
10344;DHT22;5217;43.960;10.954;2023-02-12T04:44:28;10.00;62.40
10344;DHT22;5217;43.960;10.954;2023-02-12T04:46:57;10.00;62.30
10344;DHT22;5217;43.960;10.954;2023-02-12T04:49:27;10.00;62.40
10344;DHT22;5217;43.960;10.954;2023-02-12T04:51:56;10.00;62.50
10344;DHT22;5217;43.960;10.954;2023-02-12T04:54:25;10.00;62.60
10344;DHT22;5217;43.960;10.954;2023-02-12T04:56:53;9.90;63.40
10344;DHT22;5217;43.960;10.954;2023-02-12T04:59:21;9.90;63.40
10344;DHT22;5217;43.960;10.954;2023-02-12T05:01:50;9.90;63.50
10344;DHT22;5217;43.960;10.954;2023-02-12T05:04:18;9.90;63.60
10344;DHT22;5217;43.960;10.954;2023-02-12T05:06:47;9.90;63.60
10344;DHT22;5217;43.960;10.954;2023-02-12T05:09:18;9.90;63.60
10344;DHT22;5217;43.960;10.954;2023-02-12T05:11:47;9.90;63.80
10344;DHT22;5217;43.960;10.954;2023-02-12T05:14:15;9.80;63.70
10344;DHT22;5217;43.960;10.954;2023-02-12T05:16:43;9.90;63.80
10344;DHT22;5217;43.960;10.954;2023-02-12T05:19:12;9.80;63.60
10344;DHT22;5217;43.960;10.954;2023-02-12T05:21:40;9.80;63.70
10344;DHT22;5217;43.960;10.954;2023-02-12T05:24:08;9.90;63.70
10344;DHT22;5217;43.960;10.954;2023-02-12T05:26:38;9.80;63.60
10344;DHT22;5217;43.960;10.954;2023-02-12T05:29:07;9.80;63.60
10344;DHT22;5217;43.960;10.954;2023-02-12T05:31:35;9.80;63.70
10344;DHT22;5217;43.960;10.954;2023-02-12T05:34:06;9.80;63.80
10344;DHT22;5217;43.960;10.954;2023-02-12T05:36:36;9.80;63.80
10344;DHT22;5217;43.960;10.954;2023-02-12T05:39:04;9.80;63.80
10344;DHT22;5217;43.960;10.954;2023-02-12T05:41:33;9.80;63.90
10344;DHT22;5217;43.960;10.954;2023-02-12T05:44:04;9.80;63.90
10344;DHT22;5217;43.960;10.954;2023-02-12T05:46:33;9.80;63.70
10344;DHT22;5217;43.960;10.954;2023-02-12T05:49:01;9.80;63.50
10344;DHT22;5217;43.960;10.954;2023-02-12T05:51:30;9.70;63.30
10344;DHT22;5217;43.960;10.954;2023-02-12T05:54:01;9.70;63.50
10344;DHT22;5217;43.960;10.954;2023-02-12T05:56:30;9.70;63.50
10344;DHT22;5217;43.960;10.954;2023-02-12T05:59:01;9.70;63.50
10344;DHT22;5217;43.960;10.954;2023-02-12T06:01:33;9.70;63.50
10344;DHT22;5217;43.960;10.954;2023-02-12T06:04:03;9.70;63.40
10344;DHT22;5217;43.960;10.954;2023-02-12T06:06:33;9.70;63.40
10344;DHT22;5217;43.960;10.954;2023-02-12T06:09:02;9.70;63.40
10344;DHT22;5217;43.960;10.954;2023-02-12T06:11:30;9.70;63.60
10344;DHT22;5217;43.960;10.954;2023-02-12T06:14:01;9.60;63.50
10344;DHT22;5217;43.960;10.954;2023-02-12T06:16:31;9.60;63.60
10344;DHT22;5217;43.960;10.954;2023-02-12T06:19:01;9.60;63.70
10344;DHT22;5217;43.960;10.954;2023-02-12T06:21:30;9.60;63.90
10344;DHT22;5217;43.960;10.954;2023-02-12T06:23:59;9.60;63.90
10344;DHT22;5217;43.960;10.954;2023-02-12T06:26:28;9.60;63.90
10344;DHT22;5217;43.960;10.954;2023-02-12T06:28:56;9.60;64.10
10344;DHT22;5217;43.960;10.954;2023-02-12T06:31:26;9.60;64.30
10344;DHT22;5217;43.960;10.954;2023-02-12T06:33:58;9.60;64.50
10344;DHT22;5217;43.960;10.954;2023-02-12T06:36:27;9.60;64.70
10344;DHT22;5217;43.960;10.954;2023-02-12T06:38:56;9.50;64.70
10344;DHT22;5217;43.960;10.954;2023-02-12T06:41:24;9.60;64.80
10344;DHT22;5217;43.960;10.954;2023-02-12T06:43:52;9.50;64.70
10344;DHT22;5217;43.960;10.954;2023-02-12T06:46:21;9.50;64.70
10344;DHT22;5217;43.960;10.954;2023-02-12T06:48:52;9.50;64.70
10344;DHT22;5217;43.960;10.954;2023-02-12T06:51:23;9.50;64.90
10344;DHT22;5217;43.960;10.954;2023-02-12T06:53:53;9.50;65.00
10344;DHT22;5217;43.960;10.954;2023-02-12T06:56:23;9.50;65.00
10344;DHT22;5217;43.960;10.954;2023-02-12T06:58:53;9.50;65.00
10344;DHT22;5217;43.960;10.954;2023-02-12T07:01:24;9.50;65.00
10344;DHT22;5217;43.960;10.954;2023-02-12T07:03:55;9.50;65.00
10344;DHT22;5217;43.960;10.954;2023-02-12T07:06:26;9.50;65.10
10344;DHT22;5217;43.960;10.954;2023-02-12T07:08:55;9.40;65.20
10344;DHT22;5217;43.960;10.954;2023-02-12T07:11:24;9.50;65.40
10344;DHT22;5217;43.960;10.954;2023-02-12T07:13:53;9.40;65.40
10344;DHT22;5217;43.960;10.954;2023-02-12T07:16:21;9.40;65.50
10344;DHT22;5217;43.960;10.954;2023-02-12T07:18:50;9.40;65.50
10344;DHT22;5217;43.960;10.954;2023-02-12T07:21:19;9.50;65.70
10344;DHT22;5217;43.960;10.954;2023-02-12T07:23:51;9.40;65.70
10344;DHT22;5217;43.960;10.954;2023-02-12T07:26:20;9.40;65.80
10344;DHT22;5217;43.960;10.954;2023-02-12T07:28:49;9.40;65.90
10344;DHT22;5217;43.960;10.954;2023-02-12T07:31:19;9.40;66.10
10344;DHT22;5217;43.960;10.954;2023-02-12T07:33:51;9.40;66.30
10344;DHT22;5217;43.960;10.954;2023-02-12T07:36:20;9.40;66.30
10344;DHT22;5217;43.960;10.954;2023-02-12T07:38:50;9.40;66.60
10344;DHT22;5217;43.960;10.954;2023-02-12T07:41:21;9.40;66.70
10344;DHT22;5217;43.960;10.954;2023-02-12T07:43:54;9.40;66.80
10344;DHT22;5217;43.960;10.954;2023-02-12T07:46:25;9.40;66.80
10344;DHT22;5217;43.960;10.954;2023-02-12T07:48:56;9.40;66.90
10344;DHT22;5217;43.960;10.954;2023-02-12T07:51:26;9.40;67.10
10344;DHT22;5217;43.960;10.954;2023-02-12T07:53:56;9.40;67.20
10344;DHT22;5217;43.960;10.954;2023-02-12T07:56:26;9.40;67.20
10344;DHT22;5217;43.960;10.954;2023-02-12T07:58:59;9.40;67.50
10344;DHT22;5217;43.960;10.954;2023-02-12T08:01:30;9.40;67.70
10344;DHT22;5217;43.960;10.954;2023-02-12T08:04:00;9.40;67.80
10344;DHT22;5217;43.960;10.954;2023-02-12T08:06:31;9.40;68.00
10344;DHT22;5217;43.960;10.954;2023-02-12T08:09:04;9.50;67.90
10344;DHT22;5217;43.960;10.954;2023-02-12T08:11:33;9.60;67.70
10344;DHT22;5217;43.960;10.954;2023-02-12T08:14:02;9.60;67.40
10344;DHT22;5217;43.960;10.954;2023-02-12T08:16:34;9.70;67.60
10344;DHT22;5217;43.960;10.954;2023-02-12T08:19:04;9.70;67.60
10344;DHT22;5217;43.960;10.954;2023-02-12T08:21:47;9.80;67.60
10344;DHT22;5217;43.960;10.954;2023-02-12T08:24:17;9.90;67.10
10344;DHT22;5217;43.960;10.954;2023-02-12T08:26:48;9.90;66.40
10344;DHT22;5217;43.960;10.954;2023-02-12T08:29:18;10.00;64.80
10344;DHT22;5217;43.960;10.954;2023-02-12T08:31:48;10.10;64.60
10344;DHT22;5217;43.960;10.954;2023-02-12T08:34:19;10.10;64.70
10344;DHT22;5217;43.960;10.954;2023-02-12T08:36:49;10.20;64.30
10344;DHT22;5217;43.960;10.954;2023-02-12T08:39:22;10.30;64.10
10344;DHT22;5217;43.960;10.954;2023-02-12T08:41:53;10.40;64.00
10344;DHT22;5217;43.960;10.954;2023-02-12T08:44:21;10.40;63.40
10344;DHT22;5217;43.960;10.954;2023-02-12T08:46:51;10.40;63.00
10344;DHT22;5217;43.960;10.954;2023-02-12T08:49:24;10.40;63.80
10344;DHT22;5217;43.960;10.954;2023-02-12T08:51:54;10.40;64.40
10344;DHT22;5217;43.960;10.954;2023-02-12T08:54:25;10.40;65.00
10344;DHT22;5217;43.960;10.954;2023-02-12T08:56:55;10.50;65.80
10344;DHT22;5217;43.960;10.954;2023-02-12T08:59:25;10.60;66.40
10344;DHT22;5217;43.960;10.954;2023-02-12T09:01:57;10.60;66.40
10344;DHT22;5217;43.960;10.954;2023-02-12T09:04:28;10.70;66.00
10344;DHT22;5217;43.960;10.954;2023-02-12T09:06:57;10.70;65.90
10344;DHT22;5217;43.960;10.954;2023-02-12T09:09:27;10.80;66.20
10344;DHT22;5217;43.960;10.954;2023-02-12T09:11:56;10.90;66.50
10344;DHT22;5217;43.960;10.954;2023-02-12T09:14:24;11.00;66.90
10344;DHT22;5217;43.960;10.954;2023-02-12T09:16:53;11.00;67.10
10344;DHT22;5217;43.960;10.954;2023-02-12T09:19:24;11.10;67.40
10344;DHT22;5217;43.960;10.954;2023-02-12T09:21:53;11.10;67.60
10344;DHT22;5217;43.960;10.954;2023-02-12T09:24:23;11.10;67.60
10344;DHT22;5217;43.960;10.954;2023-02-12T09:26:55;11.10;67.60
10344;DHT22;5217;43.960;10.954;2023-02-12T09:29:24;11.20;67.80
10344;DHT22;5217;43.960;10.954;2023-02-12T09:31:53;11.30;67.80
10344;DHT22;5217;43.960;10.954;2023-02-12T09:34:22;11.40;68.00
10344;DHT22;5217;43.960;10.954;2023-02-12T09:36:51;11.50;67.90
10344;DHT22;5217;43.960;10.954;2023-02-12T09:39:20;11.50;67.90
10344;DHT22;5217;43.960;10.954;2023-02-12T09:42:25;11.60;67.80
10344;DHT22;5217;43.960;10.954;2023-02-12T09:45:04;11.70;67.90
10344;DHT22;5217;43.960;10.954;2023-02-12T09:47:41;11.70;68.00
10344;DHT22;5217;43.960;10.954;2023-02-12T09:50:28;11.80;68.00
10344;DHT22;5217;43.960;10.954;2023-02-12T09:52:59;11.80;68.20
10344;DHT22;5217;43.960;10.954;2023-02-12T09:55:30;11.90;67.40
10344;DHT22;5217;43.960;10.954;2023-02-12T09:58:07;11.90;67.20
10344;DHT22;5217;43.960;10.954;2023-02-12T10:00:40;12.00;67.20
10344;DHT22;5217;43.960;10.954;2023-02-12T10:03:13;12.10;67.40
10344;DHT22;5217;43.960;10.954;2023-02-12T10:05:46;12.10;68.20
10344;DHT22;5217;43.960;10.954;2023-02-12T10:11:33;12.30;67.60
10344;DHT22;5217;43.960;10.954;2023-02-12T10:14:18;12.40;66.70
10344;DHT22;5217;43.960;10.954;2023-02-12T10:16:55;12.50;66.90
10344;DHT22;5217;43.960;10.954;2023-02-12T10:19:37;12.50;66.70
10344;DHT22;5217;43.960;10.954;2023-02-12T10:22:20;12.60;66.80
10344;DHT22;5217;43.960;10.954;2023-02-12T10:25:03;12.60;66.80
10344;DHT22;5217;43.960;10.954;2023-02-12T10:27:38;12.70;66.20
10344;DHT22;5217;43.960;10.954;2023-02-12T10:30:19;12.80;66.20
10344;DHT22;5217;43.960;10.954;2023-02-12T10:32:51;12.80;65.30
10344;DHT22;5217;43.960;10.954;2023-02-12T10:35:23;12.80;65.00
10344;DHT22;5217;43.960;10.954;2023-02-12T10:37:56;12.90;64.40
10344;DHT22;5217;43.960;10.954;2023-02-12T10:40:28;12.90;63.60
10344;DHT22;5217;43.960;10.954;2023-02-12T10:42:59;13.00;63.50
10344;DHT22;5217;43.960;10.954;2023-02-12T10:45:33;13.00;62.10
10344;DHT22;5217;43.960;10.954;2023-02-12T10:48:05;13.10;62.00
10344;DHT22;5217;43.960;10.954;2023-02-12T10:50:46;13.20;61.90
10344;DHT22;5217;43.960;10.954;2023-02-12T10:53:20;13.30;61.70
10344;DHT22;5217;43.960;10.954;2023-02-12T10:55:49;13.30;61.10
10344;DHT22;5217;43.960;10.954;2023-02-12T10:58:31;13.40;61.00
10344;DHT22;5217;43.960;10.954;2023-02-12T11:01:01;13.40;60.60
10344;DHT22;5217;43.960;10.954;2023-02-12T11:03:31;13.50;60.90
10344;DHT22;5217;43.960;10.954;2023-02-12T11:06:12;13.50;60.20
10344;DHT22;5217;43.960;10.954;2023-02-12T11:08:41;13.50;59.80
10344;DHT22;5217;43.960;10.954;2023-02-12T11:11:11;13.70;60.00
10344;DHT22;5217;43.960;10.954;2023-02-12T11:13:43;13.70;59.50
10344;DHT22;5217;43.960;10.954;2023-02-12T11:16:29;13.80;59.20
10344;DHT22;5217;43.960;10.954;2023-02-12T11:19:00;13.80;59.10
10344;DHT22;5217;43.960;10.954;2023-02-12T11:21:31;13.90;59.00
10344;DHT22;5217;43.960;10.954;2023-02-12T11:24:26;13.90;59.10
10344;DHT22;5217;43.960;10.954;2023-02-12T11:27:21;14.00;59.20
10344;DHT22;5217;43.960;10.954;2023-02-12T11:32:50;14.20;58.60
10344;DHT22;5217;43.960;10.954;2023-02-12T11:35:21;14.20;58.70
10344;DHT22;5217;43.960;10.954;2023-02-12T11:37:56;14.30;58.20
10344;DHT22;5217;43.960;10.954;2023-02-12T11:40:27;14.30;58.00
10344;DHT22;5217;43.960;10.954;2023-02-12T11:42:57;14.40;57.80
10344;DHT22;5217;43.960;10.954;2023-02-12T11:45:29;14.50;57.30
10344;DHT22;5217;43.960;10.954;2023-02-12T11:48:00;14.50;57.40
10344;DHT22;5217;43.960;10.954;2023-02-12T11:50:30;14.60;57.00
10344;DHT22;5217;43.960;10.954;2023-02-12T11:53:02;14.60;56.70
10344;DHT22;5217;43.960;10.954;2023-02-12T11:55:34;14.70;56.90
10344;DHT22;5217;43.960;10.954;2023-02-12T11:58:12;14.80;57.20
10344;DHT22;5217;43.960;10.954;2023-02-12T12:00:45;14.90;57.50
10344;DHT22;5217;43.960;10.954;2023-02-12T12:03:18;15.00;57.10
10344;DHT22;5217;43.960;10.954;2023-02-12T12:05:50;15.00;56.60
10344;DHT22;5217;43.960;10.954;2023-02-12T12:08:23;15.10;56.20
10344;DHT22;5217;43.960;10.954;2023-02-12T12:10:57;15.20;56.40
10344;DHT22;5217;43.960;10.954;2023-02-12T12:13:32;15.30;56.50
10344;DHT22;5217;43.960;10.954;2023-02-12T12:16:06;15.30;56.60
10344;DHT22;5217;43.960;10.954;2023-02-12T12:18:57;15.40;56.90
10344;DHT22;5217;43.960;10.954;2023-02-12T12:21:47;15.50;56.80
10344;DHT22;5217;43.960;10.954;2023-02-12T12:24:23;15.60;56.00
10344;DHT22;5217;43.960;10.954;2023-02-12T12:26:56;15.70;56.10
10344;DHT22;5217;43.960;10.954;2023-02-12T12:29:38;15.60;55.80
10344;DHT22;5217;43.960;10.954;2023-02-12T12:32:11;15.70;55.30
10344;DHT22;5217;43.960;10.954;2023-02-12T12:34:42;15.80;54.70
10344;DHT22;5217;43.960;10.954;2023-02-12T12:37:20;15.80;54.40
10344;DHT22;5217;43.960;10.954;2023-02-12T12:40:02;15.90;54.60
10344;DHT22;5217;43.960;10.954;2023-02-12T12:42:57;16.00;54.80
10344;DHT22;5217;43.960;10.954;2023-02-12T12:45:58;16.10;54.70
10344;DHT22;5217;43.960;10.954;2023-02-12T12:48:47;16.10;54.70
10344;DHT22;5217;43.960;10.954;2023-02-12T12:51:33;16.20;54.70
10344;DHT22;5217;43.960;10.954;2023-02-12T12:54:15;16.30;54.50
10344;DHT22;5217;43.960;10.954;2023-02-12T12:56:57;16.30;54.00
10344;DHT22;5217;43.960;10.954;2023-02-12T13:00:02;16.40;54.00
10344;DHT22;5217;43.960;10.954;2023-02-12T13:03:12;16.40;54.20
10344;DHT22;5217;43.960;10.954;2023-02-12T13:05:57;16.40;54.90
10344;DHT22;5217;43.960;10.954;2023-02-12T13:08:47;16.50;55.30
10344;DHT22;5217;43.960;10.954;2023-02-12T13:11:32;16.50;55.50
10344;DHT22;5217;43.960;10.954;2023-02-12T13:14:13;16.60;56.00
10344;DHT22;5217;43.960;10.954;2023-02-12T13:16:47;16.70;55.90
10344;DHT22;5217;43.960;10.954;2023-02-12T13:19:26;16.70;55.20
10344;DHT22;5217;43.960;10.954;2023-02-12T13:22:07;16.70;55.20
10344;DHT22;5217;43.960;10.954;2023-02-12T13:24:44;16.70;55.20
10344;DHT22;5217;43.960;10.954;2023-02-12T13:27:17;16.80;55.80
10344;DHT22;5217;43.960;10.954;2023-02-12T13:29:49;16.80;56.70
10344;DHT22;5217;43.960;10.954;2023-02-12T13:32:23;16.80;57.00
10344;DHT22;5217;43.960;10.954;2023-02-12T13:34:55;16.80;57.00
10344;DHT22;5217;43.960;10.954;2023-02-12T13:37:34;16.90;57.10
10344;DHT22;5217;43.960;10.954;2023-02-12T13:40:09;17.00;57.30
10344;DHT22;5217;43.960;10.954;2023-02-12T13:42:46;17.00;57.60
10344;DHT22;5217;43.960;10.954;2023-02-12T13:45:26;17.00;58.00
10344;DHT22;5217;43.960;10.954;2023-02-12T13:48:29;17.00;57.80
10344;DHT22;5217;43.960;10.954;2023-02-12T13:51:08;17.00;57.80
10344;DHT22;5217;43.960;10.954;2023-02-12T13:53:46;17.10;57.80
10344;DHT22;5217;43.960;10.954;2023-02-12T13:56:33;17.10;58.40
10344;DHT22;5217;43.960;10.954;2023-02-12T13:59:02;17.10;58.00
10344;DHT22;5217;43.960;10.954;2023-02-12T14:01:38;17.00;57.90
10344;DHT22;5217;43.960;10.954;2023-02-12T14:04:35;17.00;59.00
10344;DHT22;5217;43.960;10.954;2023-02-12T14:07:10;17.10;59.50
10344;DHT22;5217;43.960;10.954;2023-02-12T14:09:42;17.10;59.80
10344;DHT22;5217;43.960;10.954;2023-02-12T14:12:15;17.20;59.60
10344;DHT22;5217;43.960;10.954;2023-02-12T14:14:46;17.30;59.80
10344;DHT22;5217;43.960;10.954;2023-02-12T14:17:41;17.30;59.70
10344;DHT22;5217;43.960;10.954;2023-02-12T14:20:24;17.40;59.70
10344;DHT22;5217;43.960;10.954;2023-02-12T14:23:22;17.40;59.50
10344;DHT22;5217;43.960;10.954;2023-02-12T14:26:00;17.40;59.90
10344;DHT22;5217;43.960;10.954;2023-02-12T14:28:50;17.30;60.00
10344;DHT22;5217;43.960;10.954;2023-02-12T14:31:39;17.20;60.00
10344;DHT22;5217;43.960;10.954;2023-02-12T14:34:38;17.20;60.40
10344;DHT22;5217;43.960;10.954;2023-02-12T14:37:14;17.20;60.20
10344;DHT22;5217;43.960;10.954;2023-02-12T14:39:44;17.20;59.80
10344;DHT22;5217;43.960;10.954;2023-02-12T14:42:42;17.20;60.00
10344;DHT22;5217;43.960;10.954;2023-02-12T14:45:31;17.20;59.80
10344;DHT22;5217;43.960;10.954;2023-02-12T14:48:01;17.30;60.30
10344;DHT22;5217;43.960;10.954;2023-02-12T14:50:37;17.30;60.20
10344;DHT22;5217;43.960;10.954;2023-02-12T14:53:24;17.30;60.20
10344;DHT22;5217;43.960;10.954;2023-02-12T14:55:54;17.30;60.20
10344;DHT22;5217;43.960;10.954;2023-02-12T14:58:25;17.40;60.40
10344;DHT22;5217;43.960;10.954;2023-02-12T15:00:57;17.40;60.10
10344;DHT22;5217;43.960;10.954;2023-02-12T15:03:33;17.40;60.40
10344;DHT22;5217;43.960;10.954;2023-02-12T15:06:12;17.40;60.80
10344;DHT22;5217;43.960;10.954;2023-02-12T15:08:50;17.50;61.40
10344;DHT22;5217;43.960;10.954;2023-02-12T15:11:26;17.50;61.70
10344;DHT22;5217;43.960;10.954;2023-02-12T15:13:59;17.50;61.50
10344;DHT22;5217;43.960;10.954;2023-02-12T15:16:40;17.50;61.10
10344;DHT22;5217;43.960;10.954;2023-02-12T15:19:19;17.50;60.10
10344;DHT22;5217;43.960;10.954;2023-02-12T15:21:51;17.40;60.00
10344;DHT22;5217;43.960;10.954;2023-02-12T15:24:22;17.40;60.00
10344;DHT22;5217;43.960;10.954;2023-02-12T15:26:52;17.40;60.40
10344;DHT22;5217;43.960;10.954;2023-02-12T15:29:24;17.40;60.70
10344;DHT22;5217;43.960;10.954;2023-02-12T15:31:57;17.40;60.80
10344;DHT22;5217;43.960;10.954;2023-02-12T15:34:29;17.40;60.70
10344;DHT22;5217;43.960;10.954;2023-02-12T15:37:02;17.40;60.90
10344;DHT22;5217;43.960;10.954;2023-02-12T15:39:39;17.50;61.40
10344;DHT22;5217;43.960;10.954;2023-02-12T15:42:28;17.40;60.90
10344;DHT22;5217;43.960;10.954;2023-02-12T15:45:16;17.40;61.40
10344;DHT22;5217;43.960;10.954;2023-02-12T15:48:02;17.30;61.30
10344;DHT22;5217;43.960;10.954;2023-02-12T15:50:33;17.40;61.10
10344;DHT22;5217;43.960;10.954;2023-02-12T15:53:02;17.30;60.70
10344;DHT22;5217;43.960;10.954;2023-02-12T15:55:35;17.40;60.80
10344;DHT22;5217;43.960;10.954;2023-02-12T15:58:18;17.40;60.70
10344;DHT22;5217;43.960;10.954;2023-02-12T16:00:48;17.30;60.40
10344;DHT22;5217;43.960;10.954;2023-02-12T16:03:21;17.30;60.60
10344;DHT22;5217;43.960;10.954;2023-02-12T16:05:51;17.30;60.30
10344;DHT22;5217;43.960;10.954;2023-02-12T16:08:22;17.30;61.30
10344;DHT22;5217;43.960;10.954;2023-02-12T16:10:52;17.20;62.20
10344;DHT22;5217;43.960;10.954;2023-02-12T16:13:28;17.20;62.50
10344;DHT22;5217;43.960;10.954;2023-02-12T16:16:06;17.20;63.60
10344;DHT22;5217;43.960;10.954;2023-02-12T16:18:37;17.20;64.70
10344;DHT22;5217;43.960;10.954;2023-02-12T16:21:10;17.10;65.30
10344;DHT22;5217;43.960;10.954;2023-02-12T16:23:42;17.00;65.80
10344;DHT22;5217;43.960;10.954;2023-02-12T16:26:16;17.00;66.10